Aeroporto :
LOGIN :

Iscrizione | Disclaimer

   EN    FR    IT 

 










Sommario :    VFR   VFR Marginale   IFR   IFR Intensivo   IFR Molto Intensivo
Visibilità : 
Base nubi : 
>= 8 km
>= 3000ft
5 / 8 km
1000 / 3000 ft
1500m / 5 km
500 / 1000 ft
800 / 1500m
200 / 500 ft
< 800m
< 200 ft
Simboli :   Temporali  Nebbia  Neve Forte  Precipitazioni Forti  Vento > 20 kt
SIGMETs :   Varie  Temporali  Ghiacco  Turbolenza  Onda orograficha  Ceneri Vulcaniche






- Altitudine del aeroporto : 876 ft
- Codice IATA : MBX


LJMB - Maribor

ULTIMO METAR :
  • 200900Z 02005KT 9999 FEW023 BKN050 03/M01 Q1044 R32/CLRD//

METARs OBSOLETI :
  • 200830Z 05004KT 010V080 9999 FEW020 BKN053 02/M01 Q1043 R32/CLRD//
  • 200800Z 05003KT 9999 FEW020 BKN065 01/M01 Q1043
  • 200730Z 04004KT 350V080 9999 FEW020 BKN060 01/M01 Q1042
  • 200700Z 02004KT 9999 FEW020 BKN060 01/M02 Q1042
  • 200630Z 36005KT 330V030 9999 FEW020 BKN060 01/M02 Q1042

TAF TAF LJMB
Valido dal 20 a 09 ore il 21 a 09 ore UTC


200800Z 2009/2109 04005KT 9999 FEW020 BKN060
BECMG 2012/2015 BKN030
BECMG 2022/2101 VRB02KT FEW002 SCT020
TEMPO 2102/2103 0350 FZFG NSC
BECMG 2103/2105 0350 FZFG VV002



MetMap, La meteo Aeronautica in un colpo d'occhio ! - Copyright ORBIFLY Dicembre 2007 - Disclaimer

ORBIFLY MET'MAP TEAM :

Programmazione e sviluppo : Alexandra Zaïnal
Concezione : Baudouin d'Aumeries
Aiuto per la programmazione : Marc-Olivier Méhu
Supporto tecnico e logistico : Manuel Goepfert
Aiuto per la traduzione : Arnaldo La Scala

Contatto : metmap@orbifly.com




FONTI E CREDITI :

   NOAA